sensor_id;sensor_type;location;lat;lon;timestamp;temperature;humidity
78479;SHT31;67769;51.972;5.668;2023-02-28T00:00:38;6.5;50.8
78479;SHT31;67769;51.972;5.668;2023-02-28T00:03:08;6.5;51.0
78479;SHT31;67769;51.972;5.668;2023-02-28T00:05:38;6.5;51.2
78479;SHT31;67769;51.972;5.668;2023-02-28T00:08:09;6.5;51.0
78479;SHT31;67769;51.972;5.668;2023-02-28T00:10:39;6.5;51.2
78479;SHT31;67769;51.972;5.668;2023-02-28T00:13:09;6.6;50.9
78479;SHT31;67769;51.972;5.668;2023-02-28T00:15:38;6.6;50.9
78479;SHT31;67769;51.972;5.668;2023-02-28T00:18:08;6.6;51.1
78479;SHT31;67769;51.972;5.668;2023-02-28T00:20:39;6.7;50.5
78479;SHT31;67769;51.972;5.668;2023-02-28T00:23:09;6.7;50.6
78479;SHT31;67769;51.972;5.668;2023-02-28T00:25:39;6.8;50.5
78479;SHT31;67769;51.972;5.668;2023-02-28T00:28:09;6.8;50.3
78479;SHT31;67769;51.972;5.668;2023-02-28T00:30:38;6.8;50.4
78479;SHT31;67769;51.972;5.668;2023-02-28T00:33:08;6.9;50.2
78479;SHT31;67769;51.972;5.668;2023-02-28T00:35:38;6.9;50.0
78479;SHT31;67769;51.972;5.668;2023-02-28T00:38:08;7.0;50.1
78479;SHT31;67769;51.972;5.668;2023-02-28T00:40:39;7.0;50.0
78479;SHT31;67769;51.972;5.668;2023-02-28T00:43:11;7.1;49.9
78479;SHT31;67769;51.972;5.668;2023-02-28T00:45:42;7.1;49.8
78479;SHT31;67769;51.972;5.668;2023-02-28T00:48:15;7.1;49.8
78479;SHT31;67769;51.972;5.668;2023-02-28T00:50:48;7.1;49.8
78479;SHT31;67769;51.972;5.668;2023-02-28T00:53:18;7.2;49.7
78479;SHT31;67769;51.972;5.668;2023-02-28T00:55:50;7.2;49.5
78479;SHT31;67769;51.972;5.668;2023-02-28T00:58:20;7.2;49.5
78479;SHT31;67769;51.972;5.668;2023-02-28T01:00:52;7.2;49.8
78479;SHT31;67769;51.972;5.668;2023-02-28T01:03:23;7.2;49.7
78479;SHT31;67769;51.972;5.668;2023-02-28T01:05:53;7.2;49.7
78479;SHT31;67769;51.972;5.668;2023-02-28T01:08:23;7.3;49.8
78479;SHT31;67769;51.972;5.668;2023-02-28T01:10:53;7.3;49.5
78479;SHT31;67769;51.972;5.668;2023-02-28T01:13:23;7.3;49.5
78479;SHT31;67769;51.972;5.668;2023-02-28T01:15:55;7.3;49.1
78479;SHT31;67769;51.972;5.668;2023-02-28T01:18:25;7.3;48.8
78479;SHT31;67769;51.972;5.668;2023-02-28T01:20:56;7.3;49.0
78479;SHT31;67769;51.972;5.668;2023-02-28T01:23:25;7.3;49.6
78479;SHT31;67769;51.972;5.668;2023-02-28T01:25:55;7.3;49.4
78479;SHT31;67769;51.972;5.668;2023-02-28T01:28:24;7.2;49.9
78479;SHT31;67769;51.972;5.668;2023-02-28T01:30:56;7.2;49.6
78479;SHT31;67769;51.972;5.668;2023-02-28T01:33:26;7.3;49.9
78479;SHT31;67769;51.972;5.668;2023-02-28T01:36:00;7.3;49.8
78479;SHT31;67769;51.972;5.668;2023-02-28T01:38:30;7.3;50.2
78479;SHT31;67769;51.972;5.668;2023-02-28T01:41:02;7.3;50.0
78479;SHT31;67769;51.972;5.668;2023-02-28T01:43:54;7.3;50.2
78479;SHT31;67769;51.972;5.668;2023-02-28T01:46:24;7.3;50.0
78479;SHT31;67769;51.972;5.668;2023-02-28T01:48:59;7.3;50.1
78479;SHT31;67769;51.972;5.668;2023-02-28T01:51:35;7.3;49.9
78479;SHT31;67769;51.972;5.668;2023-02-28T01:54:11;7.3;49.9
78479;SHT31;67769;51.972;5.668;2023-02-28T01:56:47;7.3;49.7
78479;SHT31;67769;51.972;5.668;2023-02-28T01:59:23;7.3;49.9
78479;SHT31;67769;51.972;5.668;2023-02-28T02:01:54;7.3;49.7
78479;SHT31;67769;51.972;5.668;2023-02-28T02:04:30;7.3;49.9
78479;SHT31;67769;51.972;5.668;2023-02-28T02:07:05;7.3;49.9
78479;SHT31;67769;51.972;5.668;2023-02-28T02:09:35;7.3;50.1
78479;SHT31;67769;51.972;5.668;2023-02-28T02:12:13;7.3;49.9
78479;SHT31;67769;51.972;5.668;2023-02-28T02:15:00;7.3;50.3
78479;SHT31;67769;51.972;5.668;2023-02-28T02:17:36;7.3;50.1
78479;SHT31;67769;51.972;5.668;2023-02-28T02:27:51;7.3;50.0
78479;SHT31;67769;51.972;5.668;2023-02-28T02:30:46;7.3;49.7
78479;SHT31;67769;51.972;5.668;2023-02-28T02:33:38;7.3;49.7
78479;SHT31;67769;51.972;5.668;2023-02-28T02:36:14;7.3;49.7
78479;SHT31;67769;51.972;5.668;2023-02-28T02:38:50;7.3;49.8
78479;SHT31;67769;51.972;5.668;2023-02-28T02:41:31;7.3;49.6
78479;SHT31;67769;51.972;5.668;2023-02-28T02:44:13;7.3;49.6
78479;SHT31;67769;51.972;5.668;2023-02-28T02:46:49;7.2;49.6
78479;SHT31;67769;51.972;5.668;2023-02-28T02:49:24;7.2;49.7
78479;SHT31;67769;51.972;5.668;2023-02-28T02:51:58;7.2;49.8
78479;SHT31;67769;51.972;5.668;2023-02-28T02:54:34;7.2;49.9
78479;SHT31;67769;51.972;5.668;2023-02-28T02:57:08;7.2;50.0
78479;SHT31;67769;51.972;5.668;2023-02-28T02:59:43;7.3;50.0
78479;SHT31;67769;51.972;5.668;2023-02-28T03:02:14;7.3;50.0
78479;SHT31;67769;51.972;5.668;2023-02-28T03:04:50;7.3;50.0
78479;SHT31;67769;51.972;5.668;2023-02-28T03:07:21;7.3;50.0
78479;SHT31;67769;51.972;5.668;2023-02-28T03:09:53;7.3;50.1
78479;SHT31;67769;51.972;5.668;2023-02-28T03:12:31;7.3;50.1
78479;SHT31;67769;51.972;5.668;2023-02-28T03:15:11;7.3;49.9
78479;SHT31;67769;51.972;5.668;2023-02-28T03:18:00;7.3;49.9
78479;SHT31;67769;51.972;5.668;2023-02-28T03:20:39;7.3;49.9
78479;SHT31;67769;51.972;5.668;2023-02-28T03:23:16;7.3;49.9
78479;SHT31;67769;51.972;5.668;2023-02-28T03:25:53;7.3;49.9
78479;SHT31;67769;51.972;5.668;2023-02-28T03:28:35;7.3;49.9
78479;SHT31;67769;51.972;5.668;2023-02-28T03:31:16;7.3;49.7
78479;SHT31;67769;51.972;5.668;2023-02-28T03:33:54;7.3;49.7
78479;SHT31;67769;51.972;5.668;2023-02-28T03:36:28;7.3;49.9
78479;SHT31;67769;51.972;5.668;2023-02-28T03:39:03;7.3;50.2
78479;SHT31;67769;51.972;5.668;2023-02-28T03:41:38;7.4;50.3
78479;SHT31;67769;51.972;5.668;2023-02-28T03:44:13;7.4;50.3
78479;SHT31;67769;51.972;5.668;2023-02-28T03:46:50;7.4;50.0
78479;SHT31;67769;51.972;5.668;2023-02-28T03:49:26;7.5;49.5
78479;SHT31;67769;51.972;5.668;2023-02-28T03:52:02;7.5;48.6
78479;SHT31;67769;51.972;5.668;2023-02-28T03:54:37;7.5;48.7
78479;SHT31;67769;51.972;5.668;2023-02-28T03:57:15;7.5;49.0
78479;SHT31;67769;51.972;5.668;2023-02-28T03:59:52;7.5;48.0
78479;SHT31;67769;51.972;5.668;2023-02-28T04:02:24;7.5;46.5
78479;SHT31;67769;51.972;5.668;2023-02-28T04:04:53;7.5;46.2
78479;SHT31;67769;51.972;5.668;2023-02-28T04:07:24;7.5;45.6
78479;SHT31;67769;51.972;5.668;2023-02-28T04:09:54;7.5;45.6
78479;SHT31;67769;51.972;5.668;2023-02-28T04:12:24;7.5;45.0
78479;SHT31;67769;51.972;5.668;2023-02-28T04:14:54;7.5;45.2
78479;SHT31;67769;51.972;5.668;2023-02-28T04:17:23;7.5;45.0
78479;SHT31;67769;51.972;5.668;2023-02-28T04:19:55;7.5;45.3
78479;SHT31;67769;51.972;5.668;2023-02-28T04:22:25;7.4;45.7
78479;SHT31;67769;51.972;5.668;2023-02-28T04:24:55;7.4;45.8
78479;SHT31;67769;51.972;5.668;2023-02-28T04:27:27;7.4;46.3
78479;SHT31;67769;51.972;5.668;2023-02-28T04:29:56;7.3;46.1
78479;SHT31;67769;51.972;5.668;2023-02-28T04:32:26;7.3;46.4
78479;SHT31;67769;51.972;5.668;2023-02-28T04:34:56;7.3;46.3
78479;SHT31;67769;51.972;5.668;2023-02-28T04:37:26;7.3;46.9
78479;SHT31;67769;51.972;5.668;2023-02-28T04:39:57;7.3;46.7
78479;SHT31;67769;51.972;5.668;2023-02-28T04:42:27;7.3;47.0
78479;SHT31;67769;51.972;5.668;2023-02-28T04:45:02;7.3;46.9
78479;SHT31;67769;51.972;5.668;2023-02-28T04:47:33;7.3;47.4
78479;SHT31;67769;51.972;5.668;2023-02-28T04:50:03;7.3;47.1
78479;SHT31;67769;51.972;5.668;2023-02-28T04:52:33;7.3;47.7
78479;SHT31;67769;51.972;5.668;2023-02-28T04:55:02;7.3;48.0
78479;SHT31;67769;51.972;5.668;2023-02-28T04:57:33;7.3;47.7
78479;SHT31;67769;51.972;5.668;2023-02-28T05:00:03;7.4;47.0
78479;SHT31;67769;51.972;5.668;2023-02-28T05:02:39;7.4;47.6
78479;SHT31;67769;51.972;5.668;2023-02-28T05:05:08;7.4;47.2
78479;SHT31;67769;51.972;5.668;2023-02-28T05:07:39;7.4;47.1
78479;SHT31;67769;51.972;5.668;2023-02-28T05:10:09;7.5;47.1
78479;SHT31;67769;51.972;5.668;2023-02-28T05:12:40;7.5;46.9
78479;SHT31;67769;51.972;5.668;2023-02-28T05:15:13;7.5;47.2
78479;SHT31;67769;51.972;5.668;2023-02-28T05:17:43;7.5;47.2
78479;SHT31;67769;51.972;5.668;2023-02-28T05:20:14;7.5;47.0
78479;SHT31;67769;51.972;5.668;2023-02-28T05:22:44;7.6;47.0
78479;SHT31;67769;51.972;5.668;2023-02-28T05:25:17;7.6;47.3
78479;SHT31;67769;51.972;5.668;2023-02-28T05:27:49;7.6;47.0
78479;SHT31;67769;51.972;5.668;2023-02-28T05:30:19;7.6;46.9
78479;SHT31;67769;51.972;5.668;2023-02-28T05:32:50;7.6;46.6
78479;SHT31;67769;51.972;5.668;2023-02-28T05:35:23;7.5;46.7
78479;SHT31;67769;51.972;5.668;2023-02-28T05:37:54;7.5;46.6
78479;SHT31;67769;51.972;5.668;2023-02-28T05:40:23;7.4;46.8
78479;SHT31;67769;51.972;5.668;2023-02-28T05:42:55;7.4;46.9
78479;SHT31;67769;51.972;5.668;2023-02-28T05:45:24;7.3;46.9
78479;SHT31;67769;51.972;5.668;2023-02-28T05:47:55;7.3;47.2
78479;SHT31;67769;51.972;5.668;2023-02-28T05:50:25;7.2;47.0
78479;SHT31;67769;51.972;5.668;2023-02-28T05:52:55;7.2;46.8
78479;SHT31;67769;51.972;5.668;2023-02-28T05:55:24;7.1;47.3
78479;SHT31;67769;51.972;5.668;2023-02-28T05:57:54;7.0;48.0
78479;SHT31;67769;51.972;5.668;2023-02-28T06:00:25;7.0;47.8
78479;SHT31;67769;51.972;5.668;2023-02-28T06:02:55;7.0;48.2
78479;SHT31;67769;51.972;5.668;2023-02-28T06:05:29;6.9;48.7
78479;SHT31;67769;51.972;5.668;2023-02-28T06:07:59;6.9;49.0
78479;SHT31;67769;51.972;5.668;2023-02-28T06:10:28;6.9;49.0
78479;SHT31;67769;51.972;5.668;2023-02-28T06:12:59;6.9;49.6
78479;SHT31;67769;51.972;5.668;2023-02-28T06:15:30;6.9;49.3
78479;SHT31;67769;51.972;5.668;2023-02-28T06:18:01;6.9;49.4
78479;SHT31;67769;51.972;5.668;2023-02-28T06:20:31;6.9;49.6
78479;SHT31;67769;51.972;5.668;2023-02-28T06:23:02;6.9;49.4
78479;SHT31;67769;51.972;5.668;2023-02-28T06:25:32;6.9;49.8
78479;SHT31;67769;51.972;5.668;2023-02-28T06:28:04;6.9;50.0
78479;SHT31;67769;51.972;5.668;2023-02-28T06:30:33;6.9;49.3
78479;SHT31;67769;51.972;5.668;2023-02-28T06:33:03;6.9;50.1
78479;SHT31;67769;51.972;5.668;2023-02-28T06:35:32;6.9;49.8
78479;SHT31;67769;51.972;5.668;2023-02-28T06:38:02;6.9;49.3
78479;SHT31;67769;51.972;5.668;2023-02-28T06:40:32;6.9;49.5
78479;SHT31;67769;51.972;5.668;2023-02-28T06:43:03;6.9;48.9
78479;SHT31;67769;51.972;5.668;2023-02-28T06:45:34;6.9;49.0
78479;SHT31;67769;51.972;5.668;2023-02-28T06:48:04;6.9;48.7
78479;SHT31;67769;51.972;5.668;2023-02-28T06:50:34;6.9;48.5
78479;SHT31;67769;51.972;5.668;2023-02-28T06:53:04;6.9;48.5
78479;SHT31;67769;51.972;5.668;2023-02-28T06:55:34;6.9;48.1
78479;SHT31;67769;51.972;5.668;2023-02-28T06:58:05;6.9;48.1
78479;SHT31;67769;51.972;5.668;2023-02-28T07:00:41;6.9;48.5
78479;SHT31;67769;51.972;5.668;2023-02-28T07:03:12;6.9;48.3
78479;SHT31;67769;51.972;5.668;2023-02-28T07:05:45;6.9;48.4
78479;SHT31;67769;51.972;5.668;2023-02-28T07:08:15;6.9;48.7
78479;SHT31;67769;51.972;5.668;2023-02-28T07:10:45;6.9;48.7
78479;SHT31;67769;51.972;5.668;2023-02-28T07:13:16;6.9;48.6
78479;SHT31;67769;51.972;5.668;2023-02-28T07:15:57;6.9;47.9
78479;SHT31;67769;51.972;5.668;2023-02-28T07:18:27;6.9;48.2
78479;SHT31;67769;51.972;5.668;2023-02-28T07:20:57;6.8;47.9
78479;SHT31;67769;51.972;5.668;2023-02-28T07:23:27;6.8;48.1
78479;SHT31;67769;51.972;5.668;2023-02-28T07:25:57;6.8;48.2
78479;SHT31;67769;51.972;5.668;2023-02-28T07:28:27;6.8;48.5
78479;SHT31;67769;51.972;5.668;2023-02-28T07:31:02;6.8;48.4
78479;SHT31;67769;51.972;5.668;2023-02-28T07:33:33;6.7;47.8
78479;SHT31;67769;51.972;5.668;2023-02-28T07:36:05;6.7;48.3
78479;SHT31;67769;51.972;5.668;2023-02-28T07:38:36;6.7;48.3
78479;SHT31;67769;51.972;5.668;2023-02-28T07:41:06;6.7;48.4
78479;SHT31;67769;51.972;5.668;2023-02-28T07:43:36;6.7;48.3
78479;SHT31;67769;51.972;5.668;2023-02-28T07:46:08;6.7;48.0
78479;SHT31;67769;51.972;5.668;2023-02-28T07:48:39;6.7;48.7
78479;SHT31;67769;51.972;5.668;2023-02-28T07:51:08;6.7;48.4
78479;SHT31;67769;51.972;5.668;2023-02-28T07:53:40;6.8;48.3
78479;SHT31;67769;51.972;5.668;2023-02-28T07:56:10;6.8;48.1
78479;SHT31;67769;51.972;5.668;2023-02-28T07:58:40;6.9;48.0
78479;SHT31;67769;51.972;5.668;2023-02-28T08:01:11;7.0;47.0
78479;SHT31;67769;51.972;5.668;2023-02-28T08:03:41;7.3;46.2
78479;SHT31;67769;51.972;5.668;2023-02-28T08:06:18;7.8;44.9
78479;SHT31;67769;51.972;5.668;2023-02-28T08:08:49;8.6;42.9
78479;SHT31;67769;51.972;5.668;2023-02-28T08:11:19;9.4;38.7
78479;SHT31;67769;51.972;5.668;2023-02-28T08:13:50;10.3;32.7
78479;SHT31;67769;51.972;5.668;2023-02-28T08:16:20;11.1;30.9
78479;SHT31;67769;51.972;5.668;2023-02-28T08:18:51;11.6;29.2
78479;SHT31;67769;51.972;5.668;2023-02-28T08:21:21;12.1;28.0
78479;SHT31;67769;51.972;5.668;2023-02-28T08:23:51;12.2;26.8
78479;SHT31;67769;51.972;5.668;2023-02-28T08:26:21;12.2;26.7
78479;SHT31;67769;51.972;5.668;2023-02-28T08:28:50;12.1;26.6
78479;SHT31;67769;51.972;5.668;2023-02-28T08:31:20;12.1;26.9
78479;SHT31;67769;51.972;5.668;2023-02-28T08:33:52;12.1;27.0
78479;SHT31;67769;51.972;5.668;2023-02-28T08:36:25;12.1;27.6
78479;SHT31;67769;51.972;5.668;2023-02-28T08:38:56;12.2;27.4
78479;SHT31;67769;51.972;5.668;2023-02-28T08:41:27;12.4;26.8
78479;SHT31;67769;51.972;5.668;2023-02-28T08:43:56;12.5;27.4
78479;SHT31;67769;51.972;5.668;2023-02-28T08:46:26;12.7;26.6
78479;SHT31;67769;51.972;5.668;2023-02-28T08:48:57;13.0;26.3
78479;SHT31;67769;51.972;5.668;2023-02-28T08:51:29;13.2;25.7
78479;SHT31;67769;51.972;5.668;2023-02-28T08:54:00;13.4;25.0
78479;SHT31;67769;51.972;5.668;2023-02-28T08:56:30;13.6;25.4
78479;SHT31;67769;51.972;5.668;2023-02-28T08:58:59;13.7;25.0
78479;SHT31;67769;51.972;5.668;2023-02-28T09:01:30;13.8;25.5
78479;SHT31;67769;51.972;5.668;2023-02-28T09:04:00;13.9;25.3
78479;SHT31;67769;51.972;5.668;2023-02-28T09:06:31;14.0;24.2
78479;SHT31;67769;51.972;5.668;2023-02-28T09:09:01;14.0;22.8
78479;SHT31;67769;51.972;5.668;2023-02-28T09:11:34;14.0;22.5
78479;SHT31;67769;51.972;5.668;2023-02-28T09:14:04;14.0;23.2
78479;SHT31;67769;51.972;5.668;2023-02-28T09:16:34;13.9;22.3
78479;SHT31;67769;51.972;5.668;2023-02-28T09:19:04;13.8;22.5
78479;SHT31;67769;51.972;5.668;2023-02-28T09:21:35;13.7;22.6
78479;SHT31;67769;51.972;5.668;2023-02-28T09:24:06;13.7;22.0
78479;SHT31;67769;51.972;5.668;2023-02-28T09:26:37;13.6;21.7
78479;SHT31;67769;51.972;5.668;2023-02-28T09:29:07;13.6;21.8
78479;SHT31;67769;51.972;5.668;2023-02-28T09:31:37;13.5;22.1
78479;SHT31;67769;51.972;5.668;2023-02-28T09:34:07;13.5;21.8
78479;SHT31;67769;51.972;5.668;2023-02-28T09:36:37;13.5;21.7
78479;SHT31;67769;51.972;5.668;2023-02-28T09:39:07;13.4;21.8
78479;SHT31;67769;51.972;5.668;2023-02-28T09:41:41;13.4;22.3
78479;SHT31;67769;51.972;5.668;2023-02-28T09:44:22;13.4;22.0
78479;SHT31;67769;51.972;5.668;2023-02-28T09:46:56;13.3;22.8
78479;SHT31;67769;51.972;5.668;2023-02-28T09:49:37;13.3;23.5
78479;SHT31;67769;51.972;5.668;2023-02-28T09:52:13;13.2;22.2
78479;SHT31;67769;51.972;5.668;2023-02-28T09:54:45;13.2;22.9
78479;SHT31;67769;51.972;5.668;2023-02-28T09:57:21;13.2;22.9
78479;SHT31;67769;51.972;5.668;2023-02-28T10:00:05;13.2;22.6
78479;SHT31;67769;51.972;5.668;2023-02-28T10:02:48;13.2;22.2
78479;SHT31;67769;51.972;5.668;2023-02-28T10:05:21;13.2;22.4
78479;SHT31;67769;51.972;5.668;2023-02-28T10:08:02;13.2;22.1
78479;SHT31;67769;51.972;5.668;2023-02-28T10:10:39;13.2;22.6
78479;SHT31;67769;51.972;5.668;2023-02-28T10:13:26;13.2;22.5
78479;SHT31;67769;51.972;5.668;2023-02-28T10:16:01;13.1;22.5
78479;SHT31;67769;51.972;5.668;2023-02-28T10:18:41;13.1;22.0
78479;SHT31;67769;51.972;5.668;2023-02-28T10:21:19;13.0;22.6
78479;SHT31;67769;51.972;5.668;2023-02-28T10:23:56;12.9;22.4
78479;SHT31;67769;51.972;5.668;2023-02-28T10:26:29;12.9;22.9
78479;SHT31;67769;51.972;5.668;2023-02-28T10:29:01;12.8;22.4
78479;SHT31;67769;51.972;5.668;2023-02-28T10:31:30;12.8;23.3
78479;SHT31;67769;51.972;5.668;2023-02-28T10:34:00;12.7;23.0
78479;SHT31;67769;51.972;5.668;2023-02-28T10:36:34;12.7;23.9
78479;SHT31;67769;51.972;5.668;2023-02-28T10:41:58;12.6;23.5
78479;SHT31;67769;51.972;5.668;2023-02-28T10:44:28;12.6;24.6
78479;SHT31;67769;51.972;5.668;2023-02-28T10:47:00;12.5;24.1
78479;SHT31;67769;51.972;5.668;2023-02-28T10:49:30;12.6;23.9
78479;SHT31;67769;51.972;5.668;2023-02-28T10:52:02;12.6;24.5
78479;SHT31;67769;51.972;5.668;2023-02-28T10:54:34;12.6;24.7
78479;SHT31;67769;51.972;5.668;2023-02-28T10:57:17;12.6;24.1
78479;SHT31;67769;51.972;5.668;2023-02-28T10:59:51;12.6;24.9
78479;SHT31;67769;51.972;5.668;2023-02-28T11:02:33;12.7;24.0
78479;SHT31;67769;51.972;5.668;2023-02-28T11:05:25;12.7;24.0
78479;SHT31;67769;51.972;5.668;2023-02-28T11:08:05;12.7;23.6
78479;SHT31;67769;51.972;5.668;2023-02-28T11:10:34;12.6;24.2
78479;SHT31;67769;51.972;5.668;2023-02-28T11:13:05;12.6;23.9
78479;SHT31;67769;51.972;5.668;2023-02-28T11:15:35;12.5;24.4
78479;SHT31;67769;51.972;5.668;2023-02-28T11:18:20;12.4;24.1
78479;SHT31;67769;51.972;5.668;2023-02-28T11:20:53;12.4;24.3
78479;SHT31;67769;51.972;5.668;2023-02-28T11:23:25;12.3;25.2
78479;SHT31;67769;51.972;5.668;2023-02-28T11:25:59;12.2;25.1
78479;SHT31;67769;51.972;5.668;2023-02-28T11:28:32;12.2;25.4
78479;SHT31;67769;51.972;5.668;2023-02-28T11:31:05;12.2;25.2
78479;SHT31;67769;51.972;5.668;2023-02-28T11:33:42;12.1;25.5
78479;SHT31;67769;51.972;5.668;2023-02-28T11:36:15;12.1;25.1
78479;SHT31;67769;51.972;5.668;2023-02-28T11:38:46;12.0;24.9
78479;SHT31;67769;51.972;5.668;2023-02-28T11:41:32;11.9;25.0
78479;SHT31;67769;51.972;5.668;2023-02-28T11:44:25;11.9;25.9
78479;SHT31;67769;51.972;5.668;2023-02-28T11:47:03;11.8;25.5
78479;SHT31;67769;51.972;5.668;2023-02-28T11:49:41;11.8;25.9
78479;SHT31;67769;51.972;5.668;2023-02-28T11:52:21;11.8;26.2
78479;SHT31;67769;51.972;5.668;2023-02-28T11:55:20;11.8;25.1
78479;SHT31;67769;51.972;5.668;2023-02-28T11:58:05;11.7;25.8
78479;SHT31;67769;51.972;5.668;2023-02-28T12:01:15;11.7;26.0
78479;SHT31;67769;51.972;5.668;2023-02-28T12:04:01;11.7;25.3
78479;SHT31;67769;51.972;5.668;2023-02-28T12:06:40;11.7;25.4
78479;SHT31;67769;51.972;5.668;2023-02-28T12:09:28;11.6;25.0
78479;SHT31;67769;51.972;5.668;2023-02-28T12:12:10;11.6;25.0
78479;SHT31;67769;51.972;5.668;2023-02-28T12:15:57;11.6;25.0
78479;SHT31;67769;51.972;5.668;2023-02-28T12:19:03;11.5;24.7
78479;SHT31;67769;51.972;5.668;2023-02-28T12:21:48;11.5;25.8
78479;SHT31;67769;51.972;5.668;2023-02-28T12:24:47;11.4;25.3
78479;SHT31;67769;51.972;5.668;2023-02-28T12:27:23;11.4;25.3
78479;SHT31;67769;51.972;5.668;2023-02-28T12:29:58;11.4;24.6
78479;SHT31;67769;51.972;5.668;2023-02-28T12:32:33;11.3;25.1
78479;SHT31;67769;51.972;5.668;2023-02-28T12:35:11;11.3;24.7
78479;SHT31;67769;51.972;5.668;2023-02-28T12:37:47;11.3;24.9
78479;SHT31;67769;51.972;5.668;2023-02-28T12:40:22;11.3;25.0
78479;SHT31;67769;51.972;5.668;2023-02-28T12:42:57;11.3;25.3
78479;SHT31;67769;51.972;5.668;2023-02-28T12:45:39;11.2;25.5
78479;SHT31;67769;51.972;5.668;2023-02-28T12:48:16;11.2;25.4
78479;SHT31;67769;51.972;5.668;2023-02-28T12:50:47;11.2;25.3
78479;SHT31;67769;51.972;5.668;2023-02-28T12:53:25;11.1;25.1
78479;SHT31;67769;51.972;5.668;2023-02-28T12:56:08;11.1;25.6
78479;SHT31;67769;51.972;5.668;2023-02-28T12:58:45;11.1;25.3
78479;SHT31;67769;51.972;5.668;2023-02-28T13:01:33;11.1;25.3
78479;SHT31;67769;51.972;5.668;2023-02-28T13:04:25;11.1;25.2
78479;SHT31;67769;51.972;5.668;2023-02-28T13:07:19;11.1;24.6
78479;SHT31;67769;51.972;5.668;2023-02-28T13:09:55;11.1;25.0
78479;SHT31;67769;51.972;5.668;2023-02-28T13:12:27;11.0;25.1
78479;SHT31;67769;51.972;5.668;2023-02-28T13:15:06;11.0;25.3
78479;SHT31;67769;51.972;5.668;2023-02-28T13:17:40;11.0;25.6
78479;SHT31;67769;51.972;5.668;2023-02-28T13:20:18;10.9;25.5
78479;SHT31;67769;51.972;5.668;2023-02-28T13:22:51;10.9;25.8
78479;SHT31;67769;51.972;5.668;2023-02-28T13:25:55;10.9;25.6
78479;SHT31;67769;51.972;5.668;2023-02-28T13:32:28;11.0;26.0
78479;SHT31;67769;51.972;5.668;2023-02-28T13:38:37;11.0;25.3
78479;SHT31;67769;51.972;5.668;2023-02-28T13:41:45;11.0;25.1
78479;SHT31;67769;51.972;5.668;2023-02-28T13:44:18;11.0;25.4
78479;SHT31;67769;51.972;5.668;2023-02-28T13:47:30;11.0;26.0
78479;SHT31;67769;51.972;5.668;2023-02-28T13:50:23;11.1;25.2
78479;SHT31;67769;51.972;5.668;2023-02-28T13:53:14;11.1;25.6
78479;SHT31;67769;51.972;5.668;2023-02-28T13:55:53;11.1;25.0
78479;SHT31;67769;51.972;5.668;2023-02-28T13:58:39;11.1;24.9
78479;SHT31;67769;51.972;5.668;2023-02-28T14:02:10;11.1;25.2
78479;SHT31;67769;51.972;5.668;2023-02-28T14:04:53;11.1;24.8
78479;SHT31;67769;51.972;5.668;2023-02-28T14:07:29;11.1;25.1
78479;SHT31;67769;51.972;5.668;2023-02-28T14:10:04;11.0;25.1
78479;SHT31;67769;51.972;5.668;2023-02-28T14:12:58;11.0;25.1
78479;SHT31;67769;51.972;5.668;2023-02-28T14:15:42;10.9;25.6
78479;SHT31;67769;51.972;5.668;2023-02-28T14:18:18;10.9;25.5
78479;SHT31;67769;51.972;5.668;2023-02-28T14:20:53;10.9;25.8
78479;SHT31;67769;51.972;5.668;2023-02-28T14:24:07;10.8;26.1
78479;SHT31;67769;51.972;5.668;2023-02-28T14:28:11;10.8;26.0
78479;SHT31;67769;51.972;5.668;2023-02-28T14:31:01;10.8;26.4
78479;SHT31;67769;51.972;5.668;2023-02-28T14:33:46;10.8;25.7
78479;SHT31;67769;51.972;5.668;2023-02-28T14:36:26;10.8;25.8
78479;SHT31;67769;51.972;5.668;2023-02-28T14:38:59;10.8;25.8
78479;SHT31;67769;51.972;5.668;2023-02-28T14:41:33;10.8;26.0
78479;SHT31;67769;51.972;5.668;2023-02-28T14:44:16;10.7;26.2
78479;SHT31;67769;51.972;5.668;2023-02-28T14:46:49;10.7;25.9
78479;SHT31;67769;51.972;5.668;2023-02-28T14:49:23;10.7;26.2
78479;SHT31;67769;51.972;5.668;2023-02-28T14:52:06;10.6;26.5
78479;SHT31;67769;51.972;5.668;2023-02-28T14:54:38;10.6;26.8
78479;SHT31;67769;51.972;5.668;2023-02-28T14:57:24;10.6;26.5
78479;SHT31;67769;51.972;5.668;2023-02-28T15:00:13;10.6;26.9
78479;SHT31;67769;51.972;5.668;2023-02-28T15:02:43;10.6;26.7
78479;SHT31;67769;51.972;5.668;2023-02-28T15:05:28;10.6;26.0
78479;SHT31;67769;51.972;5.668;2023-02-28T15:08:11;10.6;26.3
78479;SHT31;67769;51.972;5.668;2023-02-28T15:10:43;10.6;26.5
78479;SHT31;67769;51.972;5.668;2023-02-28T15:13:15;10.6;26.9
78479;SHT31;67769;51.972;5.668;2023-02-28T15:15:48;10.6;27.2
78479;SHT31;67769;51.972;5.668;2023-02-28T15:18:27;10.6;26.5
78479;SHT31;67769;51.972;5.668;2023-02-28T15:21:07;10.6;26.6
78479;SHT31;67769;51.972;5.668;2023-02-28T15:23:42;10.5;26.7
78479;SHT31;67769;51.972;5.668;2023-02-28T15:26:18;10.5;26.7
78479;SHT31;67769;51.972;5.668;2023-02-28T15:28:54;10.5;26.6
78479;SHT31;67769;51.972;5.668;2023-02-28T15:31:28;10.4;26.3
78479;SHT31;67769;51.972;5.668;2023-02-28T15:34:04;10.4;26.3
78479;SHT31;67769;51.972;5.668;2023-02-28T15:36:35;10.4;26.6
78479;SHT31;67769;51.972;5.668;2023-02-28T15:39:20;10.3;26.7
78479;SHT31;67769;51.972;5.668;2023-02-28T15:41:50;10.3;27.0
78479;SHT31;67769;51.972;5.668;2023-02-28T15:44:28;10.3;27.2
78479;SHT31;67769;51.972;5.668;2023-02-28T15:47:02;10.3;27.3
78479;SHT31;67769;51.972;5.668;2023-02-28T15:49:45;10.2;27.2
78479;SHT31;67769;51.972;5.668;2023-02-28T15:52:17;10.2;27.3
78479;SHT31;67769;51.972;5.668;2023-02-28T15:54:48;10.2;27.8
78479;SHT31;67769;51.972;5.668;2023-02-28T15:57:23;10.2;27.9
78479;SHT31;67769;51.972;5.668;2023-02-28T15:59:55;10.2;27.6
78479;SHT31;67769;51.972;5.668;2023-02-28T16:02:33;10.1;27.7
78479;SHT31;67769;51.972;5.668;2023-02-28T16:05:21;10.1;27.5
78479;SHT31;67769;51.972;5.668;2023-02-28T16:07:56;10.1;27.3
78479;SHT31;67769;51.972;5.668;2023-02-28T16:10:29;10.0;27.3
78479;SHT31;67769;51.972;5.668;2023-02-28T16:12:59;10.0;27.4
78479;SHT31;67769;51.972;5.668;2023-02-28T16:15:41;9.9;27.5
78479;SHT31;67769;51.972;5.668;2023-02-28T16:18:12;9.9;27.6
78479;SHT31;67769;51.972;5.668;2023-02-28T16:20:44;9.9;27.5
78479;SHT31;67769;51.972;5.668;2023-02-28T16:23:14;9.8;27.4
78479;SHT31;67769;51.972;5.668;2023-02-28T16:25:45;9.8;27.8
78479;SHT31;67769;51.972;5.668;2023-02-28T16:28:20;9.8;28.1
78479;SHT31;67769;51.972;5.668;2023-02-28T16:30:54;9.8;28.0
78479;SHT31;67769;51.972;5.668;2023-02-28T16:33:24;9.7;28.2
78479;SHT31;67769;51.972;5.668;2023-02-28T16:35:53;9.7;28.6
78479;SHT31;67769;51.972;5.668;2023-02-28T16:38:23;9.6;28.3
78479;SHT31;67769;51.972;5.668;2023-02-28T16:40:55;9.6;28.7
78479;SHT31;67769;51.972;5.668;2023-02-28T16:43:28;9.6;28.4
78479;SHT31;67769;51.972;5.668;2023-02-28T16:45:58;9.5;28.9
78479;SHT31;67769;51.972;5.668;2023-02-28T16:48:30;9.5;28.9
78479;SHT31;67769;51.972;5.668;2023-02-28T16:51:00;9.5;29.0
78479;SHT31;67769;51.972;5.668;2023-02-28T16:53:31;9.4;29.2
78479;SHT31;67769;51.972;5.668;2023-02-28T16:56:02;9.4;29.4
78479;SHT31;67769;51.972;5.668;2023-02-28T16:58:34;9.3;29.6
78479;SHT31;67769;51.972;5.668;2023-02-28T17:01:05;9.3;29.8
78479;SHT31;67769;51.972;5.668;2023-02-28T17:03:35;9.3;29.7
78479;SHT31;67769;51.972;5.668;2023-02-28T17:06:16;9.2;29.8
78479;SHT31;67769;51.972;5.668;2023-02-28T17:08:47;9.2;30.0
78479;SHT31;67769;51.972;5.668;2023-02-28T17:11:17;9.1;29.9
78479;SHT31;67769;51.972;5.668;2023-02-28T17:13:48;9.1;30.3
78479;SHT31;67769;51.972;5.668;2023-02-28T17:16:23;9.1;30.5
78479;SHT31;67769;51.972;5.668;2023-02-28T17:18:58;9.0;30.2